map of CAX home
CAX - Airport
Location
City:  Carlisle, Cumbria, England, United Kingdom
ICAO:EGNC
IATA:CAX

Details
Type:Airport (Aerodrome, Airfield)
Use:Public/Civil
Latitude:5456'15"N (54.937500)
Longitude:248'33"W (-2.809166)
Datum:WGS 1984
Elevation:190 ft (58 m)
Variation:1.78W (WMM2015 magnetic declination)
0.16 annual change
Runways:3
Longest:6075 × 98 ft (1852 × 30 m), paved

Time
Time Zone:UTC+0 (DST+1)
Local Time:

Weather
METAR:EGNC 191350Z 24032G62KT 200V270 9000 VCSH SCT012 BKN021 14/07 Q0998

Related Locations
Nearby:
Farthest:SZS: 11751 mi / 18911 km
Ryan's Creek, Stewart Island, STL, NZ

Find:

   beyond  
but within

Other Information
Maps:
NOTAMs:
Links:
Sources:

  
  • flag of United Kingdom
  • flag of England
  

Sectional Chart

Flight Planning
at skyvector.com

Satellite Image

Google Maps Satellite view

 

Copyright © 2004-2018 Karl L. Swartz. All rights reserved.
The Great Circle Mapper name and logo are trademarks of the Great Circle Mapper.
All other trademarks mentioned herein belong to their respective owners.
Please see credits for attibutions and further copyright information.

  Follow gcmap on Facebook Follow gcmap on Twitter Follow gcmap on Google+ GCmap on LinkedIn

hCard Microformat

Geo Microformat